sensor_id;sensor_type;location;lat;lon;timestamp;temperature;humidity
4960;DHT22;2495;48.200;11.532;2023-07-30T00:02:34;21.40;92.70
4960;DHT22;2495;48.200;11.532;2023-07-30T00:07:35;21.30;92.50
4960;DHT22;2495;48.200;11.532;2023-07-30T00:12:37;21.30;92.40
4960;DHT22;2495;48.200;11.532;2023-07-30T00:17:38;21.30;93.20
4960;DHT22;2495;48.200;11.532;2023-07-30T00:22:39;21.60;92.80
4960;DHT22;2495;48.200;11.532;2023-07-30T00:27:40;21.60;92.20
4960;DHT22;2495;48.200;11.532;2023-07-30T00:32:41;21.40;91.50
4960;DHT22;2495;48.200;11.532;2023-07-30T00:37:43;21.30;91.60
4960;DHT22;2495;48.200;11.532;2023-07-30T00:42:44;21.20;91.70
4960;DHT22;2495;48.200;11.532;2023-07-30T00:47:45;21.40;92.70
4960;DHT22;2495;48.200;11.532;2023-07-30T00:52:46;21.50;92.40
4960;DHT22;2495;48.200;11.532;2023-07-30T00:57:48;21.40;92.20
4960;DHT22;2495;48.200;11.532;2023-07-30T01:02:49;21.30;92.70
4960;DHT22;2495;48.200;11.532;2023-07-30T01:07:50;21.20;92.30
4960;DHT22;2495;48.200;11.532;2023-07-30T01:12:51;21.10;92.50
4960;DHT22;2495;48.200;11.532;2023-07-30T01:17:54;21.00;92.70
4960;DHT22;2495;48.200;11.532;2023-07-30T01:22:55;21.00;92.80
4960;DHT22;2495;48.200;11.532;2023-07-30T01:27:58;21.00;92.90
4960;DHT22;2495;48.200;11.532;2023-07-30T01:32:58;20.90;93.00
4960;DHT22;2495;48.200;11.532;2023-07-30T01:37:59;20.90;93.00
4960;DHT22;2495;48.200;11.532;2023-07-30T01:43:00;20.90;93.60
4960;DHT22;2495;48.200;11.532;2023-07-30T01:48:01;21.20;93.70
4960;DHT22;2495;48.200;11.532;2023-07-30T01:53:03;21.10;92.90
4960;DHT22;2495;48.200;11.532;2023-07-30T01:58:04;21.20;93.00
4960;DHT22;2495;48.200;11.532;2023-07-30T02:03:05;21.20;93.60
4960;DHT22;2495;48.200;11.532;2023-07-30T02:08:06;21.20;92.90
4960;DHT22;2495;48.200;11.532;2023-07-30T02:13:08;21.20;92.80
4960;DHT22;2495;48.200;11.532;2023-07-30T02:18:09;21.20;93.30
4960;DHT22;2495;48.200;11.532;2023-07-30T02:23:10;21.50;93.20
4960;DHT22;2495;48.200;11.532;2023-07-30T02:28:11;21.40;92.40
4960;DHT22;2495;48.200;11.532;2023-07-30T02:33:13;21.30;92.40
4960;DHT22;2495;48.200;11.532;2023-07-30T02:38:14;21.20;92.00
4960;DHT22;2495;48.200;11.532;2023-07-30T02:43:15;21.10;92.30
4960;DHT22;2495;48.200;11.532;2023-07-30T02:48:16;21.20;93.00
4960;DHT22;2495;48.200;11.532;2023-07-30T02:53:18;21.20;92.20
4960;DHT22;2495;48.200;11.532;2023-07-30T02:58:19;21.20;92.40
4960;DHT22;2495;48.200;11.532;2023-07-30T03:03:20;21.10;92.10
4960;DHT22;2495;48.200;11.532;2023-07-30T03:08:22;20.90;92.20
4960;DHT22;2495;48.200;11.532;2023-07-30T03:13:23;20.70;92.50
4960;DHT22;2495;48.200;11.532;2023-07-30T03:18:24;20.80;93.50
4960;DHT22;2495;48.200;11.532;2023-07-30T03:23:26;21.00;93.70
4960;DHT22;2495;48.200;11.532;2023-07-30T03:28:26;20.90;93.10
4960;DHT22;2495;48.200;11.532;2023-07-30T03:33:28;20.90;93.80
4960;DHT22;2495;48.200;11.532;2023-07-30T03:38:29;20.70;93.10
4960;DHT22;2495;48.200;11.532;2023-07-30T03:43:30;20.70;93.80
4960;DHT22;2495;48.200;11.532;2023-07-30T03:48:31;20.70;93.50
4960;DHT22;2495;48.200;11.532;2023-07-30T03:53:32;20.50;93.30
4960;DHT22;2495;48.200;11.532;2023-07-30T03:58:34;20.60;93.50
4960;DHT22;2495;48.200;11.532;2023-07-30T04:03:35;20.50;93.30
4960;DHT22;2495;48.200;11.532;2023-07-30T04:08:36;20.40;93.40
4960;DHT22;2495;48.200;11.532;2023-07-30T04:13:37;20.40;93.50
4960;DHT22;2495;48.200;11.532;2023-07-30T04:18:39;20.30;93.50
4960;DHT22;2495;48.200;11.532;2023-07-30T04:23:40;20.30;94.40
4960;DHT22;2495;48.200;11.532;2023-07-30T04:28:41;20.60;94.50
4960;DHT22;2495;48.200;11.532;2023-07-30T04:33:43;21.10;94.50
4960;DHT22;2495;48.200;11.532;2023-07-30T04:38:44;21.10;94.40
4960;DHT22;2495;48.200;11.532;2023-07-30T04:43:46;21.10;93.70
4960;DHT22;2495;48.200;11.532;2023-07-30T04:48:47;20.90;93.60
4960;DHT22;2495;48.200;11.532;2023-07-30T04:53:48;20.80;93.60
4960;DHT22;2495;48.200;11.532;2023-07-30T04:58:49;20.80;93.60
4960;DHT22;2495;48.200;11.532;2023-07-30T05:03:51;20.80;93.50
4960;DHT22;2495;48.200;11.532;2023-07-30T05:08:52;20.70;93.30
4960;DHT22;2495;48.200;11.532;2023-07-30T05:13:53;20.80;93.90
4960;DHT22;2495;48.200;11.532;2023-07-30T05:18:54;20.90;93.20
4960;DHT22;2495;48.200;11.532;2023-07-30T05:23:56;20.80;92.80
4960;DHT22;2495;48.200;11.532;2023-07-30T05:28:57;20.90;93.60
4960;DHT22;2495;48.200;11.532;2023-07-30T05:33:58;20.90;92.90
4960;DHT22;2495;48.200;11.532;2023-07-30T05:38:59;21.10;92.50
4960;DHT22;2495;48.200;11.532;2023-07-30T05:44:01;21.10;92.00
4960;DHT22;2495;48.200;11.532;2023-07-30T05:49:02;20.90;92.20
4960;DHT22;2495;48.200;11.532;2023-07-30T05:54:03;21.20;92.20
4960;DHT22;2495;48.200;11.532;2023-07-30T05:59:04;21.40;92.20
4960;DHT22;2495;48.200;11.532;2023-07-30T06:04:05;21.70;91.20
4960;DHT22;2495;48.200;11.532;2023-07-30T06:09:07;21.80;90.50
4960;DHT22;2495;48.200;11.532;2023-07-30T06:14:09;21.90;90.10
4960;DHT22;2495;48.200;11.532;2023-07-30T06:19:10;21.90;89.90
4960;DHT22;2495;48.200;11.532;2023-07-30T06:24:11;21.90;90.00
4960;DHT22;2495;48.200;11.532;2023-07-30T06:29:13;22.30;89.00
4960;DHT22;2495;48.200;11.532;2023-07-30T06:34:14;22.30;88.60
4960;DHT22;2495;48.200;11.532;2023-07-30T06:39:15;22.40;88.00
4960;DHT22;2495;48.200;11.532;2023-07-30T06:44:17;22.40;87.80
4960;DHT22;2495;48.200;11.532;2023-07-30T06:49:19;22.70;87.30
4960;DHT22;2495;48.200;11.532;2023-07-30T06:54:20;22.70;86.90
4960;DHT22;2495;48.200;11.532;2023-07-30T06:59:21;23.00;87.60
4960;DHT22;2495;48.200;11.532;2023-07-30T07:04:22;23.40;86.50
4960;DHT22;2495;48.200;11.532;2023-07-30T07:09:24;23.70;85.30
4960;DHT22;2495;48.200;11.532;2023-07-30T07:14:25;23.90;85.10
4960;DHT22;2495;48.200;11.532;2023-07-30T07:19:26;24.10;85.00
4960;DHT22;2495;48.200;11.532;2023-07-30T07:24:27;24.20;84.20
4960;DHT22;2495;48.200;11.532;2023-07-30T07:29:28;24.70;81.50
4960;DHT22;2495;48.200;11.532;2023-07-30T07:34:30;24.90;78.50
4960;DHT22;2495;48.200;11.532;2023-07-30T07:39:32;25.00;77.80
4960;DHT22;2495;48.200;11.532;2023-07-30T07:44:32;24.90;75.90
4960;DHT22;2495;48.200;11.532;2023-07-30T07:49:33;24.90;76.60
4960;DHT22;2495;48.200;11.532;2023-07-30T07:54:35;26.10;76.90
4960;DHT22;2495;48.200;11.532;2023-07-30T07:59:37;27.10;73.80
4960;DHT22;2495;48.200;11.532;2023-07-30T08:04:38;27.00;73.60
4960;DHT22;2495;48.200;11.532;2023-07-30T08:09:39;27.80;70.30
4960;DHT22;2495;48.200;11.532;2023-07-30T08:14:40;27.60;68.50
4960;DHT22;2495;48.200;11.532;2023-07-30T08:19:43;27.20;67.80
4960;DHT22;2495;48.200;11.532;2023-07-30T08:24:44;27.40;67.60
4960;DHT22;2495;48.200;11.532;2023-07-30T08:29:45;26.80;70.90
4960;DHT22;2495;48.200;11.532;2023-07-30T08:34:46;27.00;68.20
4960;DHT22;2495;48.200;11.532;2023-07-30T08:39:48;26.30;69.30
4960;DHT22;2495;48.200;11.532;2023-07-30T08:44:49;26.90;70.60
4960;DHT22;2495;48.200;11.532;2023-07-30T08:49:50;28.80;63.80
4960;DHT22;2495;48.200;11.532;2023-07-30T08:54:51;29.00;61.30
4960;DHT22;2495;48.200;11.532;2023-07-30T08:59:54;29.50;57.30
4960;DHT22;2495;48.200;11.532;2023-07-30T09:04:55;29.80;60.30
4960;DHT22;2495;48.200;11.532;2023-07-30T09:09:55;29.40;61.60
4960;DHT22;2495;48.200;11.532;2023-07-30T09:14:56;31.10;59.70
4960;DHT22;2495;48.200;11.532;2023-07-30T09:20:01;31.30;56.10
4960;DHT22;2495;48.200;11.532;2023-07-30T09:25:02;31.50;54.20
4960;DHT22;2495;48.200;11.532;2023-07-30T09:30:04;32.10;55.70
4960;DHT22;2495;48.200;11.532;2023-07-30T09:35:06;33.10;52.30
4960;DHT22;2495;48.200;11.532;2023-07-30T09:40:13;32.10;52.30
4960;DHT22;2495;48.200;11.532;2023-07-30T09:45:20;31.40;52.50
4960;DHT22;2495;48.200;11.532;2023-07-30T09:50:21;31.60;50.60
4960;DHT22;2495;48.200;11.532;2023-07-30T09:55:22;32.30;50.00
4960;DHT22;2495;48.200;11.532;2023-07-30T10:00:24;30.90;52.00
4960;DHT22;2495;48.200;11.532;2023-07-30T10:05:27;30.90;51.90
4960;DHT22;2495;48.200;11.532;2023-07-30T10:10:26;30.70;50.00
4960;DHT22;2495;48.200;11.532;2023-07-30T10:15:27;31.60;48.20
4960;DHT22;2495;48.200;11.532;2023-07-30T10:20:29;31.00;48.10
4960;DHT22;2495;48.200;11.532;2023-07-30T10:30:54;29.00;52.00
4960;DHT22;2495;48.200;11.532;2023-07-30T10:35:48;28.90;52.70
4960;DHT22;2495;48.200;11.532;2023-07-30T10:41:05;29.70;52.30
4960;DHT22;2495;48.200;11.532;2023-07-30T10:46:06;30.70;50.20
4960;DHT22;2495;48.200;11.532;2023-07-30T10:51:10;29.90;51.80
4960;DHT22;2495;48.200;11.532;2023-07-30T10:56:10;29.60;53.00
4960;DHT22;2495;48.200;11.532;2023-07-30T11:01:12;29.70;54.60
4960;DHT22;2495;48.200;11.532;2023-07-30T11:06:14;29.70;54.40
4960;DHT22;2495;48.200;11.532;2023-07-30T11:11:15;31.10;52.00
4960;DHT22;2495;48.200;11.532;2023-07-30T11:16:16;31.70;50.40
4960;DHT22;2495;48.200;11.532;2023-07-30T11:21:18;31.70;49.20
4960;DHT22;2495;48.200;11.532;2023-07-30T11:26:19;30.70;48.80
4960;DHT22;2495;48.200;11.532;2023-07-30T11:31:20;30.10;51.30
4960;DHT22;2495;48.200;11.532;2023-07-30T11:36:22;29.50;54.60
4960;DHT22;2495;48.200;11.532;2023-07-30T11:41:23;29.50;54.50
4960;DHT22;2495;48.200;11.532;2023-07-30T11:46:24;29.40;54.00
4960;DHT22;2495;48.200;11.532;2023-07-30T11:51:27;28.70;57.60
4960;DHT22;2495;48.200;11.532;2023-07-30T11:56:30;28.70;57.50
4960;DHT22;2495;48.200;11.532;2023-07-30T12:01:34;30.60;50.70
4960;DHT22;2495;48.200;11.532;2023-07-30T12:06:44;31.00;49.60
4960;DHT22;2495;48.200;11.532;2023-07-30T12:11:54;30.20;52.90
4960;DHT22;2495;48.200;11.532;2023-07-30T12:16:55;30.60;50.70
4960;DHT22;2495;48.200;11.532;2023-07-30T12:21:56;30.10;51.80
4960;DHT22;2495;48.200;11.532;2023-07-30T12:26:57;29.60;53.20
4960;DHT22;2495;48.200;11.532;2023-07-30T12:31:58;28.80;57.10
4960;DHT22;2495;48.200;11.532;2023-07-30T12:36:59;29.20;58.70
4960;DHT22;2495;48.200;11.532;2023-07-30T12:42:01;29.10;56.70
4960;DHT22;2495;48.200;11.532;2023-07-30T12:47:02;28.80;58.30
4960;DHT22;2495;48.200;11.532;2023-07-30T12:52:03;28.70;56.70
4960;DHT22;2495;48.200;11.532;2023-07-30T12:57:05;28.50;57.60
4960;DHT22;2495;48.200;11.532;2023-07-30T13:02:06;28.30;58.00
4960;DHT22;2495;48.200;11.532;2023-07-30T13:07:08;28.30;58.20
4960;DHT22;2495;48.200;11.532;2023-07-30T13:12:09;28.30;58.80
4960;DHT22;2495;48.200;11.532;2023-07-30T13:17:10;28.10;59.30
4960;DHT22;2495;48.200;11.532;2023-07-30T13:22:11;28.00;58.40
4960;DHT22;2495;48.200;11.532;2023-07-30T13:27:12;27.70;60.50
4960;DHT22;2495;48.200;11.532;2023-07-30T13:32:14;27.30;61.70
4960;DHT22;2495;48.200;11.532;2023-07-30T13:37:15;26.90;60.90
4960;DHT22;2495;48.200;11.532;2023-07-30T13:42:16;26.40;61.30
4960;DHT22;2495;48.200;11.532;2023-07-30T13:47:17;25.90;64.30
4960;DHT22;2495;48.200;11.532;2023-07-30T13:52:18;24.90;73.40
4960;DHT22;2495;48.200;11.532;2023-07-30T13:57:22;24.80;76.30
4960;DHT22;2495;48.200;11.532;2023-07-30T14:02:23;25.50;75.30
4960;DHT22;2495;48.200;11.532;2023-07-30T14:07:25;26.00;74.10
4960;DHT22;2495;48.200;11.532;2023-07-30T14:12:26;26.00;75.40
4960;DHT22;2495;48.200;11.532;2023-07-30T14:17:27;26.20;75.70
4960;DHT22;2495;48.200;11.532;2023-07-30T14:22:28;26.10;72.70
4960;DHT22;2495;48.200;11.532;2023-07-30T14:27:29;26.00;72.50
4960;DHT22;2495;48.200;11.532;2023-07-30T14:32:31;26.10;73.70
4960;DHT22;2495;48.200;11.532;2023-07-30T14:37:32;26.20;69.10
4960;DHT22;2495;48.200;11.532;2023-07-30T14:42:33;26.10;70.20
4960;DHT22;2495;48.200;11.532;2023-07-30T14:47:34;26.30;69.60
4960;DHT22;2495;48.200;11.532;2023-07-30T14:52:35;26.30;67.70
4960;DHT22;2495;48.200;11.532;2023-07-30T14:57:37;26.60;63.70
4960;DHT22;2495;48.200;11.532;2023-07-30T15:02:39;27.90;59.10
4960;DHT22;2495;48.200;11.532;2023-07-30T15:07:40;27.80;59.00
4960;DHT22;2495;48.200;11.532;2023-07-30T15:12:41;28.30;57.00
4960;DHT22;2495;48.200;11.532;2023-07-30T15:17:42;28.30;54.00
4960;DHT22;2495;48.200;11.532;2023-07-30T15:22:43;28.30;53.30
4960;DHT22;2495;48.200;11.532;2023-07-30T15:27:44;28.50;51.20
4960;DHT22;2495;48.200;11.532;2023-07-30T15:32:46;28.90;51.00
4960;DHT22;2495;48.200;11.532;2023-07-30T15:37:47;29.20;48.40
4960;DHT22;2495;48.200;11.532;2023-07-30T15:42:48;29.10;49.10
4960;DHT22;2495;48.200;11.532;2023-07-30T15:47:49;29.20;47.60
4960;DHT22;2495;48.200;11.532;2023-07-30T15:52:50;29.10;47.80
4960;DHT22;2495;48.200;11.532;2023-07-30T15:57:52;28.60;47.00
4960;DHT22;2495;48.200;11.532;2023-07-30T16:02:53;27.80;47.60
4960;DHT22;2495;48.200;11.532;2023-07-30T16:07:54;27.40;48.00
4960;DHT22;2495;48.200;11.532;2023-07-30T16:12:55;27.30;49.10
4960;DHT22;2495;48.200;11.532;2023-07-30T16:17:57;27.30;49.80
4960;DHT22;2495;48.200;11.532;2023-07-30T16:22:58;27.10;49.70
4960;DHT22;2495;48.200;11.532;2023-07-30T16:27:59;26.70;49.80
4960;DHT22;2495;48.200;11.532;2023-07-30T16:33:00;26.30;51.00
4960;DHT22;2495;48.200;11.532;2023-07-30T16:38:01;26.00;51.30
4960;DHT22;2495;48.200;11.532;2023-07-30T16:43:03;25.90;52.10
4960;DHT22;2495;48.200;11.532;2023-07-30T16:48:04;25.90;50.90
4960;DHT22;2495;48.200;11.532;2023-07-30T16:53:05;26.00;52.40
4960;DHT22;2495;48.200;11.532;2023-07-30T16:58:06;26.40;53.40
4960;DHT22;2495;48.200;11.532;2023-07-30T17:03:08;26.30;53.40
4960;DHT22;2495;48.200;11.532;2023-07-30T17:08:11;26.20;54.20
4960;DHT22;2495;48.200;11.532;2023-07-30T17:13:10;26.00;54.60
4960;DHT22;2495;48.200;11.532;2023-07-30T17:18:11;25.80;56.40
4960;DHT22;2495;48.200;11.532;2023-07-30T17:23:13;25.70;56.30
4960;DHT22;2495;48.200;11.532;2023-07-30T17:28:14;25.40;57.30
4960;DHT22;2495;48.200;11.532;2023-07-30T17:33:15;25.50;57.30
4960;DHT22;2495;48.200;11.532;2023-07-30T17:38:16;25.20;58.10
4960;DHT22;2495;48.200;11.532;2023-07-30T17:43:17;25.20;58.40
4960;DHT22;2495;48.200;11.532;2023-07-30T17:48:19;25.20;58.20
4960;DHT22;2495;48.200;11.532;2023-07-30T17:53:20;25.10;58.50
4960;DHT22;2495;48.200;11.532;2023-07-30T17:58:21;24.80;59.00
4960;DHT22;2495;48.200;11.532;2023-07-30T18:03:22;24.50;59.40
4960;DHT22;2495;48.200;11.532;2023-07-30T18:08:24;24.30;59.60
4960;DHT22;2495;48.200;11.532;2023-07-30T18:13:25;24.30;60.10
4960;DHT22;2495;48.200;11.532;2023-07-30T18:18:26;24.40;61.10
4960;DHT22;2495;48.200;11.532;2023-07-30T18:23:27;24.60;60.30
4960;DHT22;2495;48.200;11.532;2023-07-30T18:28:29;24.60;60.70
4960;DHT22;2495;48.200;11.532;2023-07-30T18:33:30;24.60;61.70
4960;DHT22;2495;48.200;11.532;2023-07-30T18:38:31;24.50;61.80
4960;DHT22;2495;48.200;11.532;2023-07-30T18:43:32;24.50;61.90
4960;DHT22;2495;48.200;11.532;2023-07-30T18:48:33;24.30;62.10
4960;DHT22;2495;48.200;11.532;2023-07-30T18:53:35;24.20;62.50
4960;DHT22;2495;48.200;11.532;2023-07-30T18:58:36;24.10;63.50
4960;DHT22;2495;48.200;11.532;2023-07-30T19:03:37;24.30;63.70
4960;DHT22;2495;48.200;11.532;2023-07-30T19:08:38;24.30;62.80
4960;DHT22;2495;48.200;11.532;2023-07-30T19:13:40;24.10;62.80
4960;DHT22;2495;48.200;11.532;2023-07-30T19:18:41;23.90;62.70
4960;DHT22;2495;48.200;11.532;2023-07-30T19:23:42;23.70;62.70
4960;DHT22;2495;48.200;11.532;2023-07-30T19:28:43;23.60;63.10
4960;DHT22;2495;48.200;11.532;2023-07-30T19:33:45;23.40;63.60
4960;DHT22;2495;48.200;11.532;2023-07-30T19:38:46;23.20;64.10
4960;DHT22;2495;48.200;11.532;2023-07-30T19:43:47;23.20;64.50
4960;DHT22;2495;48.200;11.532;2023-07-30T19:48:48;23.10;65.90
4960;DHT22;2495;48.200;11.532;2023-07-30T19:53:49;23.20;65.90
4960;DHT22;2495;48.200;11.532;2023-07-30T19:58:51;23.30;65.60
4960;DHT22;2495;48.200;11.532;2023-07-30T20:03:52;23.30;64.00
4960;DHT22;2495;48.200;11.532;2023-07-30T20:08:53;23.00;63.60
4960;DHT22;2495;48.200;11.532;2023-07-30T20:13:54;23.00;64.30
4960;DHT22;2495;48.200;11.532;2023-07-30T20:18:56;23.10;63.80
4960;DHT22;2495;48.200;11.532;2023-07-30T20:23:57;23.10;62.50
4960;DHT22;2495;48.200;11.532;2023-07-30T20:28:58;23.00;62.90
4960;DHT22;2495;48.200;11.532;2023-07-30T20:33:59;23.00;61.80
4960;DHT22;2495;48.200;11.532;2023-07-30T20:39:00;22.90;62.30
4960;DHT22;2495;48.200;11.532;2023-07-30T20:44:02;22.90;62.40
4960;DHT22;2495;48.200;11.532;2023-07-30T20:49:03;22.90;61.60
4960;DHT22;2495;48.200;11.532;2023-07-30T20:54:04;22.70;61.80
4960;DHT22;2495;48.200;11.532;2023-07-30T20:59:05;22.70;61.90
4960;DHT22;2495;48.200;11.532;2023-07-30T21:04:07;22.80;61.60
4960;DHT22;2495;48.200;11.532;2023-07-30T21:09:08;22.80;61.20
4960;DHT22;2495;48.200;11.532;2023-07-30T21:14:09;22.60;61.10
4960;DHT22;2495;48.200;11.532;2023-07-30T21:19:10;22.40;61.30
4960;DHT22;2495;48.200;11.532;2023-07-30T21:24:11;22.30;62.60
4960;DHT22;2495;48.200;11.532;2023-07-30T21:29:13;22.30;62.60
4960;DHT22;2495;48.200;11.532;2023-07-30T21:34:14;22.30;61.50
4960;DHT22;2495;48.200;11.532;2023-07-30T21:39:15;22.20;61.30
4960;DHT22;2495;48.200;11.532;2023-07-30T21:44:16;22.00;61.50
4960;DHT22;2495;48.200;11.532;2023-07-30T21:49:17;22.10;63.40
4960;DHT22;2495;48.200;11.532;2023-07-30T21:54:19;22.00;62.00
4960;DHT22;2495;48.200;11.532;2023-07-30T21:59:20;22.00;62.20
4960;DHT22;2495;48.200;11.532;2023-07-30T22:04:21;21.90;62.50
4960;DHT22;2495;48.200;11.532;2023-07-30T22:09:22;21.70;63.00
4960;DHT22;2495;48.200;11.532;2023-07-30T22:14:24;21.60;63.30
4960;DHT22;2495;48.200;11.532;2023-07-30T22:19:25;21.70;64.50
4960;DHT22;2495;48.200;11.532;2023-07-30T22:24:26;21.80;64.20
4960;DHT22;2495;48.200;11.532;2023-07-30T22:29:28;22.10;63.40
4960;DHT22;2495;48.200;11.532;2023-07-30T22:34:29;22.10;63.10
4960;DHT22;2495;48.200;11.532;2023-07-30T22:39:30;22.00;62.50
4960;DHT22;2495;48.200;11.532;2023-07-30T22:44:32;21.80;62.40
4960;DHT22;2495;48.200;11.532;2023-07-30T22:49:33;21.60;62.70
4960;DHT22;2495;48.200;11.532;2023-07-30T22:54:37;21.40;63.70
4960;DHT22;2495;48.200;11.532;2023-07-30T22:59:38;21.40;63.40
4960;DHT22;2495;48.200;11.532;2023-07-30T23:04:39;21.30;63.80
4960;DHT22;2495;48.200;11.532;2023-07-30T23:09:41;21.30;63.80
4960;DHT22;2495;48.200;11.532;2023-07-30T23:14:42;21.20;63.70
4960;DHT22;2495;48.200;11.532;2023-07-30T23:19:43;21.20;63.80
4960;DHT22;2495;48.200;11.532;2023-07-30T23:24:44;21.20;65.00
4960;DHT22;2495;48.200;11.532;2023-07-30T23:29:46;21.40;65.00
4960;DHT22;2495;48.200;11.532;2023-07-30T23:34:47;21.50;63.80
4960;DHT22;2495;48.200;11.532;2023-07-30T23:39:51;21.50;64.80
4960;DHT22;2495;48.200;11.532;2023-07-30T23:44:52;21.50;64.50
4960;DHT22;2495;48.200;11.532;2023-07-30T23:49:54;21.30;64.10
4960;DHT22;2495;48.200;11.532;2023-07-30T23:54:55;21.20;65.30
4960;DHT22;2495;48.200;11.532;2023-07-30T23:59:57;21.00;65.30
